Time;durP1;ratioP1;P1;durP2;ratioP2;P2;SDS_P1;SDS_P2;PMS_P1;PMS_P2;Temp;Humidity;BMP_temperature;BMP_pressure;BME280_temperature;BME280_humidity;BME280_pressure;Samples;Min_cycle;Max_cycle;Signal;HPM_P1;HPM_P2
2022/01/06 00:01:58;;;;;;;27.10;18.80;;;;;;;7.65;63.27;99329.77;117355;1185;23566;-57
2022/01/06 00:04:27;;;;;;;40.80;22.30;;;;;;;7.65;63.41;99341.47;117992;1185;21976;-57
2022/01/06 00:06:55;;;;;;;54.90;27.90;;;;;;;7.64;63.41;99344.80;117333;1185;23110;-66
2022/01/06 00:09:23;;;;;;;78.40;39.00;;;;;;;7.64;63.23;99344.11;117369;1186;23554;-67
2022/01/06 00:11:52;;;;;;;39.20;23.00;;;;;;;7.62;63.32;99335.40;117461;1185;23471;-66
2022/01/06 00:17:24;;;;;;;66.50;29.80;;;;;;;7.56;63.27;99334.11;117341;1185;23572;-66
2022/01/06 00:25:40;;;;;;;40.70;20.50;;;;;;;7.45;63.16;99330.27;117306;1188;23510;-57
2022/01/06 00:28:09;;;;;;;35.40;19.30;;;;;;;7.41;63.28;99339.05;117310;1185;21852;-56
2022/01/06 00:30:38;;;;;;;26.20;16.20;;;;;;;7.38;63.28;99343.27;117426;1185;23449;-57
2022/01/06 00:33:06;;;;;;;51.10;27.40;;;;;;;7.38;63.29;99343.83;117364;1179;22780;-59
2022/01/06 00:35:34;;;;;;;50.10;25.90;;;;;;;7.38;63.45;99347.12;117401;1186;23631;-66
2022/01/06 00:38:06;;;;;;;27.80;16.50;;;;;;;7.39;63.23;99346.07;117345;1186;21842;-57
2022/01/06 00:40:37;;;;;;;26.60;18.60;;;;;;;7.38;63.32;99347.98;117308;1186;21856;-66
2022/01/06 00:43:06;;;;;;;22.10;15.60;;;;;;;7.37;63.29;99346.79;117409;1185;22998;-66
2022/01/06 00:45:36;;;;;;;19.90;14.90;;;;;;;7.36;63.63;99344.91;117425;1185;24167;-56
2022/01/06 00:48:09;;;;;;;20.60;14.30;;;;;;;7.33;63.45;99346.86;117307;1189;21851;-56
2022/01/06 00:50:38;;;;;;;21.00;13.70;;;;;;;7.35;63.29;99345.44;117385;1185;22617;-56
2022/01/06 00:53:07;;;;;;;18.80;14.10;;;;;;;7.34;63.22;99338.81;117392;1185;21912;-63
2022/01/06 00:55:36;;;;;;;18.20;14.10;;;;;;;7.29;63.03;99338.02;117401;1184;22719;-57
2022/01/06 00:58:10;;;;;;;21.80;14.80;;;;;;;7.24;63.40;99340.55;117318;1182;21851;-67
2022/01/06 01:00:40;;;;;;;18.30;13.80;;;;;;;7.24;63.31;99345.61;117309;1179;21858;-66
2022/01/06 01:03:17;;;;;;;17.90;13.80;;;;;;;7.20;63.08;99335.20;117358;1185;23546;-67
2022/01/06 01:05:49;;;;;;;21.80;14.60;;;;;;;7.20;63.11;99339.03;117368;1182;23496;-57
2022/01/06 01:08:17;;;;;;;20.30;15.20;;;;;;;7.18;63.36;99340.47;117394;1185;22937;-67
2022/01/06 01:10:46;;;;;;;19.70;14.60;;;;;;;7.19;63.49;99337.64;117367;1185;23462;-67
2022/01/06 01:13:15;;;;;;;20.70;14.50;;;;;;;7.20;63.37;99340.43;117396;1183;23548;-56
2022/01/06 01:15:53;;;;;;;21.80;14.30;;;;;;;7.17;63.33;99338.90;117370;1185;23449;-56
2022/01/06 01:18:22;;;;;;;25.70;18.00;;;;;;;7.16;63.55;99334.91;117312;1185;21855;-67
2022/01/06 01:20:51;;;;;;;20.60;15.50;;;;;;;7.17;63.37;99334.37;117395;1185;23448;-66
2022/01/06 01:23:20;;;;;;;22.10;15.50;;;;;;;7.21;63.44;99332.91;117389;1186;21937;-67
2022/01/06 01:25:49;;;;;;;20.30;13.90;;;;;;;7.24;63.34;99327.45;117309;1183;21863;-67
2022/01/06 01:28:18;;;;;;;19.60;15.20;;;;;;;7.23;63.40;99324.15;117398;1185;23576;-56
2022/01/06 01:33:36;;;;;;;23.40;15.50;;;;;;;7.23;63.43;99319.27;117336;1182;23481;-67
2022/01/06 01:36:04;;;;;;;19.10;14.10;;;;;;;7.22;63.25;99315.98;117428;1185;23547;-56
2022/01/06 01:38:33;;;;;;;20.70;14.50;;;;;;;7.23;63.47;99313.50;117443;1185;22355;-57
2022/01/06 01:41:01;;;;;;;22.00;15.70;;;;;;;7.20;63.28;99307.27;117460;1185;23574;-56
2022/01/06 01:43:29;;;;;;;20.10;15.00;;;;;;;7.19;63.42;99309.23;117413;1185;23455;-56
2022/01/06 01:46:07;;;;;;;22.00;15.30;;;;;;;7.17;63.39;99310.30;117418;1185;22644;-56
2022/01/06 01:48:40;;;;;;;22.40;16.50;;;;;;;7.19;63.28;99305.02;117398;1185;24136;-66
2022/01/06 01:51:11;;;;;;;21.30;15.20;;;;;;;7.21;63.54;99309.36;117347;1185;21840;-57
2022/01/06 01:53:39;;;;;;;19.70;15.20;;;;;;;7.22;63.81;99308.29;117297;1186;23449;-56
2022/01/06 01:56:08;;;;;;;22.60;14.70;;;;;;;7.21;63.43;99310.23;117394;1181;21982;-56
2022/01/06 01:58:37;;;;;;;22.80;15.10;;;;;;;7.17;63.51;99305.77;117362;1185;21845;-56
2022/01/06 02:01:05;;;;;;;20.40;14.90;;;;;;;7.12;63.32;99303.02;117382;1183;22616;-56
2022/01/06 02:03:34;;;;;;;22.00;15.70;;;;;;;7.16;63.20;99305.09;117361;1183;23609;-66
2022/01/06 02:06:02;;;;;;;22.10;16.00;;;;;;;7.16;63.36;99304.02;117340;1183;21848;-56
2022/01/06 02:08:31;;;;;;;21.20;16.10;;;;;;;7.13;63.12;99303.71;117398;1177;21863;-56
2022/01/06 02:10:59;;;;;;;22.40;16.50;;;;;;;7.13;63.18;99302.67;117349;1185;22965;-66
2022/01/06 02:13:29;;;;;;;21.40;16.00;;;;;;;7.13;63.31;99303.38;117253;1186;22316;-56
2022/01/06 02:16:00;;;;;;;21.10;16.10;;;;;;;7.12;63.32;99303.03;117313;1185;21851;-66
2022/01/06 02:18:29;;;;;;;23.50;15.60;;;;;;;7.06;63.35;99302.79;117385;1184;23480;-57
2022/01/06 02:20:57;;;;;;;21.10;16.60;;;;;;;7.05;63.56;99298.97;117356;1186;23075;-56
2022/01/06 02:23:25;;;;;;;20.50;14.90;;;;;;;7.05;63.39;99304.70;117373;1185;23467;-56
2022/01/06 02:25:53;;;;;;;21.10;15.20;;;;;;;7.01;63.44;99293.45;117363;1188;23467;-67
2022/01/06 02:28:24;;;;;;;19.50;14.40;;;;;;;6.97;63.28;99292.98;117270;1186;21892;-56
2022/01/06 02:30:54;;;;;;;21.50;15.60;;;;;;;6.95;63.48;99293.88;117283;1185;21841;-56
2022/01/06 02:33:24;;;;;;;;;;;;;;;6.95;63.53;99288.83;117412;1182;22992;-66
2022/01/06 02:35:54;;;;;;;19.20;13.90;;;;;;;6.95;63.52;99288.13;117416;1186;23628;-56
2022/01/06 02:38:22;;;;;;;20.70;14.60;;;;;;;6.94;63.18;99286.03;117323;1185;23471;-67
2022/01/06 02:40:50;;;;;;;22.20;14.80;;;;;;;6.94;63.41;99287.97;117393;1183;21857;-67
2022/01/06 02:43:23;;;;;;;21.70;16.50;;;;;;;6.93;63.47;99288.33;117371;1185;23497;-57
2022/01/06 02:45:52;;;;;;;25.20;16.60;;;;;;;6.94;63.39;99289.02;117347;1185;21842;-67
2022/01/06 02:48:21;;;;;;;22.40;16.30;;;;;;;6.95;63.64;99291.44;117478;1185;23808;-56
2022/01/06 02:50:49;;;;;;;20.30;14.70;;;;;;;6.96;63.41;99290.20;117351;1185;23476;-67
2022/01/06 02:53:18;;;;;;;23.50;15.70;;;;;;;6.92;63.48;99283.28;117345;1186;22825;-56
2022/01/06 02:55:53;;;;;;;23.60;16.40;;;;;;;6.92;63.46;99283.80;117200;1186;21860;-57
2022/01/06 02:58:41;;;;;;;21.80;15.90;;;;;;;6.92;63.47;99283.27;117380;1176;23471;-56
2022/01/06 03:01:10;;;;;;;19.60;14.90;;;;;;;6.92;63.18;99284.68;117359;1186;21859;-65
2022/01/06 03:03:38;;;;;;;23.40;17.10;;;;;;;6.94;63.24;99287.27;117254;1186;21856;-66
2022/01/06 03:06:06;;;;;;;24.60;18.30;;;;;;;6.95;63.42;99295.45;117393;1185;23452;-67
2022/01/06 03:08:35;;;;;;;22.40;17.20;;;;;;;6.94;63.48;99299.64;117339;1186;22929;-67
2022/01/06 03:11:04;;;;;;;25.60;18.20;;;;;;;6.95;63.09;99303.46;117355;1185;22924;-56
2022/01/06 03:13:33;;;;;;;23.90;16.90;;;;;;;6.91;63.26;99304.05;117213;1186;21891;-57
2022/01/06 03:16:01;;;;;;;22.40;17.50;;;;;;;6.87;63.41;99303.75;117439;1185;22616;-67
2022/01/06 03:18:30;;;;;;;20.40;15.20;;;;;;;6.83;63.34;99306.08;117399;1185;21894;-67
2022/01/06 03:20:58;;;;;;;21.40;16.20;;;;;;;6.79;63.41;99306.30;117407;1182;22618;-56
2022/01/06 03:23:27;;;;;;;21.90;15.30;;;;;;;6.75;63.35;99306.02;117362;1185;23125;-56
2022/01/06 03:25:55;;;;;;;21.00;15.90;;;;;;;6.68;63.41;99300.00;117466;1186;21849;-56
2022/01/06 03:28:23;;;;;;;22.20;16.10;;;;;;;6.64;63.30;99300.23;117376;1185;23554;-67
2022/01/06 03:30:51;;;;;;;24.00;17.10;;;;;;;6.59;63.34;99296.99;117356;1186;21930;-66
2022/01/06 03:33:20;;;;;;;20.20;15.10;;;;;;;6.57;63.30;99300.86;117384;1185;21848;-67
2022/01/06 03:35:48;;;;;;;23.10;16.30;;;;;;;6.54;63.41;99304.04;117409;1185;21855;-66
2022/01/06 03:38:16;;;;;;;24.00;16.50;;;;;;;6.50;63.34;99309.48;117351;1186;23448;-66
2022/01/06 03:40:44;;;;;;;23.60;17.40;;;;;;;6.47;63.37;99307.96;117346;1188;21854;-66
2022/01/06 03:43:12;;;;;;;23.50;17.00;;;;;;;6.48;63.34;99307.60;117326;1186;23458;-67
2022/01/06 03:45:41;;;;;;;27.10;18.40;;;;;;;6.55;63.77;99307.68;117349;1185;21864;-56
2022/01/06 03:48:09;;;;;;;20.70;16.20;;;;;;;6.60;63.52;99314.77;117312;1185;23894;-67
2022/01/06 03:50:37;;;;;;;24.20;17.90;;;;;;;6.62;63.73;99316.31;117398;1183;23628;-67
2022/01/06 03:53:05;;;;;;;23.80;17.90;;;;;;;6.61;63.56;99317.02;117391;1185;23457;-67
2022/01/06 03:55:34;;;;;;;25.80;17.60;;;;;;;6.62;63.32;99318.58;117225;1189;23471;-56
2022/01/06 03:58:02;;;;;;;22.60;16.30;;;;;;;6.64;63.65;99324.48;117407;1185;22544;-67
2022/01/06 04:00:31;;;;;;;27.40;17.60;;;;;;;6.67;63.61;99327.38;117414;1184;21845;-67
2022/01/06 04:02:59;;;;;;;23.20;16.30;;;;;;;6.68;63.44;99330.52;117299;1186;21969;-56
2022/01/06 04:05:31;;;;;;;21.90;16.50;;;;;;;6.69;63.59;99325.45;117374;1183;23481;-57
2022/01/06 04:08:00;;;;;;;21.60;16.20;;;;;;;6.69;63.44;99325.09;117228;1182;23515;-68
2022/01/06 04:10:31;;;;;;;25.80;18.40;;;;;;;6.70;63.69;99322.82;117370;1185;23480;-67
2022/01/06 04:12:59;;;;;;;23.20;16.80;;;;;;;6.70;63.48;99323.17;117385;1182;23846;-57
2022/01/06 04:15:27;;;;;;;23.30;17.10;;;;;;;6.69;63.59;99325.44;117341;1186;23496;-56
2022/01/06 04:17:55;;;;;;;24.80;17.50;;;;;;;6.69;63.60;99323.54;117335;1186;22005;-56
2022/01/06 04:20:23;;;;;;;23.90;17.40;;;;;;;6.68;63.39;99322.33;117466;1183;21986;-67
2022/01/06 04:22:52;;;;;;;23.40;17.70;;;;;;;6.66;63.41;99322.52;117399;1184;23471;-64
2022/01/06 04:25:20;;;;;;;22.00;16.50;;;;;;;6.64;63.49;99323.59;117382;1186;21891;-67
2022/01/06 04:27:49;;;;;;;23.10;17.40;;;;;;;6.61;63.53;99325.56;117358;1186;23029;-67
2022/01/06 04:30:17;;;;;;;22.90;15.90;;;;;;;6.57;63.12;99327.02;117362;1186;21842;-56
2022/01/06 04:32:45;;;;;;;25.70;18.10;;;;;;;6.54;63.45;99326.51;117346;1185;23449;-67
2022/01/06 04:35:13;;;;;;;25.20;17.20;;;;;;;6.51;63.34;99332.13;117394;1186;23480;-66
2022/01/06 04:37:41;;;;;;;26.80;17.40;;;;;;;6.49;63.31;99333.20;117358;1186;23474;-57
2022/01/06 04:40:10;;;;;;;24.50;16.40;;;;;;;6.47;63.22;99334.45;117395;1186;23532;-56
2022/01/06 04:42:39;;;;;;;23.80;16.30;;;;;;;6.42;63.31;99331.73;117358;1186;21985;-67
2022/01/06 04:45:08;;;;;;;22.80;16.00;;;;;;;6.41;63.41;99335.56;117263;1179;21852;-56
2022/01/06 04:47:36;;;;;;;20.50;16.20;;;;;;;6.40;63.11;99338.54;117410;1182;21845;-67
2022/01/06 04:50:04;;;;;;;23.40;17.60;;;;;;;6.34;63.36;99344.01;117358;1185;22995;-56
2022/01/06 04:52:32;;;;;;;21.50;16.10;;;;;;;6.35;63.22;99343.13;117400;1183;21845;-68
2022/01/06 04:55:00;;;;;;;25.60;18.40;;;;;;;6.34;63.16;99338.61;117241;1185;23474;-56
2022/01/06 04:57:29;;;;;;;21.40;15.80;;;;;;;6.33;63.45;99345.23;117373;1182;21858;-68
2022/01/06 04:59:57;;;;;;;25.20;17.50;;;;;;;6.33;63.44;99336.36;117357;1186;24169;-56
2022/01/06 05:02:28;;;;;;;20.50;16.30;;;;;;;6.33;63.30;99344.91;117451;1185;23468;-67
2022/01/06 05:04:56;;;;;;;24.60;17.60;;;;;;;6.34;63.58;99354.98;117362;1186;21941;-56
2022/01/06 05:07:24;;;;;;;25.80;17.90;;;;;;;6.35;63.50;99359.17;117373;1185;23445;-56
2022/01/06 05:09:53;;;;;;;22.90;16.60;;;;;;;6.32;63.28;99363.02;117411;1182;21860;-56
2022/01/06 05:12:22;;;;;;;25.10;16.60;;;;;;;6.32;63.27;99358.84;117322;1185;23573;-67
2022/01/06 05:14:50;;;;;;;21.80;16.20;;;;;;;6.33;63.27;99366.50;117438;1186;24144;-56
2022/01/06 05:17:19;;;;;;;23.00;17.00;;;;;;;6.31;63.12;99380.45;117336;1185;21855;-56
2022/01/06 05:19:47;;;;;;;25.80;18.30;;;;;;;6.33;63.31;99394.90;117395;1183;21845;-56
2022/01/06 05:22:15;;;;;;;26.60;17.70;;;;;;;6.40;63.75;99399.52;117415;1183;23445;-57
2022/01/06 05:24:43;;;;;;;25.10;17.60;;;;;;;6.54;63.54;99400.08;117426;1180;21860;-56
2022/01/06 05:27:11;;;;;;;25.60;18.40;;;;;;;6.62;63.55;99394.92;117411;1186;21841;-56
2022/01/06 05:29:40;;;;;;;27.40;18.10;;;;;;;6.73;63.62;99386.25;117378;1185;23699;-56
2022/01/06 05:32:08;;;;;;;29.90;21.60;;;;;;;6.78;63.64;99398.05;117412;1186;23628;-56
2022/01/06 05:34:36;;;;;;;29.70;19.60;;;;;;;6.84;63.57;99401.98;117383;1186;21872;-67
2022/01/06 05:37:06;;;;;;;26.60;19.40;;;;;;;6.84;63.45;99389.75;117353;1185;21962;-67
2022/01/06 05:39:34;;;;;;;28.20;19.60;;;;;;;6.83;63.57;99388.57;117353;1184;23459;-66
2022/01/06 05:42:03;;;;;;;28.10;19.80;;;;;;;6.82;63.74;99391.19;119327;1186;21836;-57
2022/01/06 05:44:34;;;;;;;26.20;19.60;;;;;;;6.83;63.31;99392.59;117958;1184;21845;-56
2022/01/06 05:47:03;;;;;;;23.40;17.60;;;;;;;6.83;63.54;99391.89;117430;1186;21867;-56
2022/01/06 05:49:33;;;;;;;26.10;19.30;;;;;;;6.84;63.44;99405.96;117407;1185;21842;-66
2022/01/06 05:52:01;;;;;;;25.80;19.70;;;;;;;6.86;63.81;99407.17;117318;1186;21857;-56
2022/01/06 05:54:30;;;;;;;25.70;19.00;;;;;;;6.88;63.57;99403.67;117441;1183;21871;-66
2022/01/06 05:56:58;;;;;;;27.90;19.80;;;;;;;6.88;63.59;99406.64;117378;1183;21855;-66
2022/01/06 05:59:29;;;;;;;21.60;16.60;;;;;;;6.89;63.85;99417.08;117490;1184;23449;-56
2022/01/06 06:01:57;;;;;;;25.30;17.50;;;;;;;6.94;63.60;99421.39;117329;1186;23481;-67
2022/01/06 06:04:26;;;;;;;23.60;17.30;;;;;;;6.97;63.80;99409.48;117361;1185;21938;-66
2022/01/06 06:06:54;;;;;;;22.50;16.60;;;;;;;7.01;63.50;99411.36;117393;1185;23550;-56
2022/01/06 06:09:24;;;;;;;21.30;17.00;;;;;;;7.04;63.53;99426.67;117347;1186;23480;-56
2022/01/06 06:11:52;;;;;;;21.90;16.40;;;;;;;7.03;63.63;99424.61;117352;1186;23499;-56
2022/01/06 06:14:21;;;;;;;25.90;17.80;;;;;;;7.00;63.25;99423.05;117248;1186;23458;-66
2022/01/06 06:16:49;;;;;;;20.30;15.80;;;;;;;6.97;63.48;99421.52;117358;1185;22924;-67
2022/01/06 06:19:17;;;;;;;24.30;16.40;;;;;;;6.96;63.57;99421.02;117364;1182;21922;-66
2022/01/06 06:21:45;;;;;;;24.50;18.00;;;;;;;6.96;63.57;99422.92;117389;1185;22608;-58
2022/01/06 06:24:14;;;;;;;22.70;16.70;;;;;;;7.01;63.58;99431.42;117412;1186;23635;-56
2022/01/06 06:26:43;;;;;;;21.80;16.20;;;;;;;7.03;63.48;99428.60;117399;1184;22973;-57
2022/01/06 06:29:11;;;;;;;25.70;18.00;;;;;;;7.04;63.48;99423.88;117391;1186;21854;-66
2022/01/06 06:31:39;;;;;;;25.60;18.10;;;;;;;7.01;63.73;99427.76;117322;1186;22828;-56
2022/01/06 06:34:09;;;;;;;25.30;17.70;;;;;;;6.99;63.64;99428.30;117327;1186;22683;-56
2022/01/06 06:36:37;;;;;;;23.20;17.50;;;;;;;7.02;63.57;99435.24;117316;1182;22332;-57
2022/01/06 06:39:05;;;;;;;23.60;18.10;;;;;;;7.04;63.75;99438.71;117344;1185;21868;-57
2022/01/06 06:41:34;;;;;;;25.80;18.50;;;;;;;7.06;63.67;99448.27;117339;1185;23557;-67
2022/01/06 06:44:02;;;;;;;24.60;17.50;;;;;;;7.05;63.73;99444.79;117368;1185;22815;-67
2022/01/06 06:46:30;;;;;;;22.80;16.90;;;;;;;7.06;63.74;99447.92;117379;1185;22847;-57
2022/01/06 06:48:59;;;;;;;26.40;19.50;;;;;;;7.10;63.73;99446.11;117373;1186;22924;-57
2022/01/06 06:51:27;;;;;;;24.40;18.40;;;;;;;7.16;63.87;99449.02;117340;1182;22934;-67
2022/01/06 06:53:55;;;;;;;29.60;21.00;;;;;;;7.22;64.06;99451.90;117398;1185;23584;-66
2022/01/06 06:56:23;;;;;;;25.30;18.10;;;;;;;7.28;63.78;99451.30;117435;1183;24228;-57
2022/01/06 06:58:51;;;;;;;31.00;23.10;;;;;;;7.33;63.80;99448.95;118357;1183;21874;-62
2022/01/06 07:01:19;;;;;;;25.80;18.50;;;;;;;7.40;64.16;99452.70;117280;1186;21841;-57
2022/01/06 07:03:48;;;;;;;30.00;20.10;;;;;;;7.50;63.91;99452.90;117374;1186;21852;-67
2022/01/06 07:06:16;;;;;;;27.90;19.90;;;;;;;7.59;64.11;99461.33;117381;1186;21842;-67
2022/01/06 07:08:44;;;;;;;27.50;20.10;;;;;;;7.68;64.20;99458.23;117354;1186;23472;-56
2022/01/06 07:11:32;;;;;;;27.70;20.80;;;;;;;7.76;63.84;99464.73;117372;1185;21853;-58
2022/01/06 07:14:01;;;;;;;26.00;20.60;;;;;;;7.88;63.98;99467.52;117338;1186;21958;-58
2022/01/06 07:16:31;;;;;;;29.10;22.00;;;;;;;7.95;64.01;99479.48;117356;1185;21853;-57
2022/01/06 07:18:59;;;;;;;30.30;21.70;;;;;;;8.00;64.09;99473.45;117405;1186;23448;-66
2022/01/06 07:21:28;;;;;;;28.80;20.40;;;;;;;8.07;64.16;99472.64;117374;1187;23475;-58
2022/01/06 07:23:56;;;;;;;27.60;21.70;;;;;;;8.15;64.26;99475.11;117484;1185;23449;-66
2022/01/06 07:26:24;;;;;;;31.10;22.70;;;;;;;8.24;64.36;99481.95;117382;1183;23471;-57
2022/01/06 07:28:52;;;;;;;29.20;20.00;;;;;;;8.39;64.32;99479.96;117397;1182;23555;-68
2022/01/06 07:31:20;;;;;;;25.10;19.00;;;;;;;8.51;64.08;99475.92;117404;1182;22002;-56
2022/01/06 07:33:49;;;;;;;28.70;20.90;;;;;;;8.61;64.14;99468.23;117345;1183;23583;-57
2022/01/06 07:36:17;;;;;;;26.40;20.50;;;;;;;8.71;64.21;99465.23;117363;1183;21845;-56
2022/01/06 07:38:45;;;;;;;29.70;21.10;;;;;;;8.85;64.04;99463.92;117382;1186;24286;-67
2022/01/06 07:41:15;;;;;;;22.50;18.70;;;;;;;8.95;64.03;99471.42;117321;1180;23439;-56
2022/01/06 07:43:44;;;;;;;26.20;19.60;;;;;;;9.03;63.91;99469.16;117310;1183;23204;-56
2022/01/06 07:46:12;;;;;;;26.00;19.60;;;;;;;9.11;64.00;99468.30;118183;1185;21848;-66
2022/01/06 07:49:14;;;;;;;28.00;19.40;;;;;;;9.21;63.95;99463.02;118398;1183;21852;-55
2022/01/06 07:51:34;;;;;;;24.60;18.00;;;;;;;9.30;63.94;99460.52;117356;1185;22924;-56
2022/01/06 07:54:03;;;;;;;26.90;20.10;;;;;;;9.36;64.09;99460.23;117439;1185;21861;-68
2022/01/06 07:56:33;;;;;;;27.90;21.30;;;;;;;9.47;64.21;99463.33;117372;1186;23576;-66
2022/01/06 07:59:01;;;;;;;31.20;21.40;;;;;;;9.58;64.31;99462.21;117380;1182;23585;-56
2022/01/06 08:01:29;;;;;;;25.50;19.00;;;;;;;9.70;64.22;99469.27;117345;1180;21857;-56
2022/01/06 08:03:58;;;;;;;24.60;19.20;;;;;;;9.84;64.15;99471.59;117341;1182;21905;-67
2022/01/06 08:06:26;;;;;;;26.70;19.30;;;;;;;9.93;64.21;99468.23;117363;1182;23551;-66
2022/01/06 08:08:54;;;;;;;28.70;20.90;;;;;;;10.03;64.23;99468.16;117224;1186;23602;-67
2022/01/06 08:11:22;;;;;;;26.90;21.20;;;;;;;10.15;64.33;99474.17;117449;1184;23234;-66
2022/01/06 08:13:50;;;;;;;24.70;19.10;;;;;;;10.28;64.34;99470.34;117390;1186;22928;-67
2022/01/06 08:16:19;;;;;;;29.40;21.30;;;;;;;10.39;64.27;99465.52;117275;1186;23541;-56
2022/01/06 08:18:48;;;;;;;28.30;19.80;;;;;;;10.47;64.44;99463.93;117316;1183;21855;-67
2022/01/06 08:21:16;;;;;;;27.30;20.20;;;;;;;10.57;64.52;99465.60;117324;1183;23586;-66
2022/01/06 08:23:45;;;;;;;26.30;20.30;;;;;;;10.62;64.54;99468.60;117348;1186;23582;-67
2022/01/06 08:26:16;;;;;;;23.60;18.50;;;;;;;10.73;64.58;99474.46;117346;1186;23909;-64
2022/01/06 08:28:46;;;;;;;24.10;19.50;;;;;;;10.84;64.58;99477.13;117146;1186;24139;-56
2022/01/06 08:31:17;;;;;;;23.00;17.80;;;;;;;10.96;64.65;99477.86;117386;1183;22926;-57
2022/01/06 08:33:45;;;;;;;25.10;19.20;;;;;;;11.10;64.65;99481.82;117369;1186;22743;-56
2022/01/06 08:36:14;;;;;;;22.00;17.80;;;;;;;11.26;64.85;99476.13;117502;1185;22490;-65
2022/01/06 08:38:42;;;;;;;22.00;16.40;;;;;;;11.40;64.91;99474.48;117370;1183;23553;-66
2022/01/06 08:41:10;;;;;;;20.80;16.70;;;;;;;11.56;65.02;99473.80;117358;1186;23472;-66
2022/01/06 08:43:38;;;;;;;23.50;17.40;;;;;;;11.72;64.90;99478.41;117312;1185;23526;-65
2022/01/06 08:46:06;;;;;;;23.70;17.70;;;;;;;11.86;64.84;99480.08;117365;1183;21855;-66
2022/01/06 08:48:35;;;;;;;20.10;16.80;;;;;;;12.00;64.87;99476.66;117863;1185;21868;-64
2022/01/06 08:51:03;;;;;;;19.80;14.70;;;;;;;12.15;64.86;99485.52;117452;1186;21867;-56
2022/01/06 08:53:32;;;;;;;19.40;15.60;;;;;;;12.23;64.88;99492.45;117545;1186;23544;-66
2022/01/06 08:56:00;;;;;;;22.40;16.90;;;;;;;12.34;65.03;99491.41;117404;1185;21873;-57
2022/01/06 08:58:32;;;;;;;21.80;16.00;;;;;;;12.50;65.08;99486.98;117369;1182;24498;-57
2022/01/06 09:01:00;;;;;;;19.40;15.70;;;;;;;12.68;65.18;99484.41;117410;1183;21854;-57
2022/01/06 09:03:29;;;;;;;19.80;15.00;;;;;;;12.90;65.31;99482.59;117335;1185;21846;-66
2022/01/06 09:05:57;;;;;;;17.70;14.40;;;;;;;13.09;65.24;99480.30;117350;1182;23536;-57
2022/01/06 09:08:25;;;;;;;20.10;15.10;;;;;;;13.32;65.24;99481.77;117357;1186;23551;-60
2022/01/06 09:10:54;;;;;;;24.10;15.70;;;;;;;13.41;65.12;99486.35;117278;1186;22031;-57
2022/01/06 09:13:27;;;;;;;17.90;14.10;;;;;;;13.45;64.94;99487.27;117316;1185;23582;-66
2022/01/06 09:15:56;;;;;;;18.60;13.90;;;;;;;13.50;64.96;99489.36;117425;1183;23553;-57
2022/01/06 09:18:24;;;;;;;20.50;15.50;;;;;;;13.55;64.81;99478.98;117403;1185;21855;-66
2022/01/06 09:20:52;;;;;;;20.00;13.90;;;;;;;13.58;64.73;99480.61;117400;1183;21854;-57
2022/01/06 09:23:21;;;;;;;31.20;21.00;;;;;;;13.60;64.57;99481.25;117385;1183;21845;-65
2022/01/06 09:25:49;;;;;;;32.70;20.40;;;;;;;13.54;64.61;99478.48;117458;1185;22623;-66
2022/01/06 09:28:18;;;;;;;27.50;18.70;;;;;;;13.57;64.78;99485.06;117386;1186;23448;-58
2022/01/06 09:30:46;;;;;;;24.90;18.40;;;;;;;13.63;64.95;99483.80;117435;1185;21854;-58
2022/01/06 09:33:16;;;;;;;28.10;18.90;;;;;;;13.79;64.99;99478.23;117172;1187;23483;-58
2022/01/06 09:35:45;;;;;;;24.90;19.40;;;;;;;13.92;65.05;99479.61;117346;1186;21893;-58
2022/01/06 09:38:13;;;;;;;21.10;16.40;;;;;;;14.09;65.03;99480.36;117371;1186;22997;-67
2022/01/06 09:40:44;;;;;;;25.20;16.40;;;;;;;14.19;64.95;99472.87;117309;1186;24436;-58
2022/01/06 09:43:12;;;;;;;;;;;;;;;14.35;65.14;99465.69;117436;1184;23448;-58
2022/01/06 09:45:42;;;;;;;24.10;17.00;;;;;;;14.58;65.31;99458.88;117408;1183;21898;-66
2022/01/06 09:48:10;;;;;;;22.50;16.80;;;;;;;14.82;65.37;99457.36;117458;1185;21967;-58
2022/01/06 09:50:42;;;;;;;21.00;15.60;;;;;;;15.05;65.50;99453.31;117431;1183;23473;-59
2022/01/06 09:53:10;;;;;;;18.70;14.80;;;;;;;15.35;65.50;99453.02;117270;1186;21852;-66
2022/01/06 09:55:39;;;;;;;18.90;14.50;;;;;;;15.57;65.43;99460.48;117300;1186;24691;-58
2022/01/06 09:58:08;;;;;;;20.40;15.70;;;;;;;15.69;65.17;99465.04;117354;1185;21857;-66
2022/01/06 10:00:37;;;;;;;20.30;15.00;;;;;;;15.68;65.19;99467.36;117372;1186;22033;-67
2022/01/06 10:03:06;;;;;;;26.30;19.90;;;;;;;15.66;65.08;99463.76;117326;1185;21853;-59
2022/01/06 10:05:46;;;;;;;20.70;15.40;;;;;;;15.62;64.93;99462.67;117299;1186;21861;-66
2022/01/06 10:08:27;;;;;;;18.80;13.90;;;;;;;15.61;65.10;99460.43;117339;1186;21864;-58
2022/01/06 10:11:18;;;;;;;20.40;15.20;;;;;;;15.71;65.07;99461.95;117385;1186;22966;-58
2022/01/06 10:13:59;;;;;;;18.50;14.30;;;;;;;15.75;64.93;99467.02;117408;1182;24183;-57
2022/01/06 10:16:30;;;;;;;19.60;15.40;;;;;;;15.69;64.82;99468.05;117449;1185;23013;-65
2022/01/06 10:19:10;;;;;;;18.70;14.70;;;;;;;15.55;64.62;99467.45;117358;1185;23525;-65
2022/01/06 10:21:40;;;;;;;18.20;14.10;;;;;;;15.44;64.74;99467.60;117284;1184;22002;-57
2022/01/06 10:24:12;;;;;;;18.70;13.40;;;;;;;15.38;64.71;99465.93;117318;1186;24176;-58
2022/01/06 10:26:58;;;;;;;17.90;14.30;;;;;;;15.28;64.64;99462.14;117317;1186;23579;-57
2022/01/06 10:29:38;;;;;;;16.90;13.40;;;;;;;15.24;64.65;99455.25;117250;1182;22643;-57
2022/01/06 10:32:09;;;;;;;39.50;29.50;;;;;;;15.29;64.78;99455.20;117376;1184;22931;-57
2022/01/06 10:34:42;;;;;;;17.10;14.60;;;;;;;15.39;65.00;99454.75;117362;1182;23723;-57
2022/01/06 10:37:26;;;;;;;17.90;13.60;;;;;;;15.47;64.97;99462.88;117327;1186;24279;-67
2022/01/06 10:39:59;;;;;;;29.20;18.90;;;;;;;15.52;64.81;99467.61;118232;1185;21857;-66
2022/01/06 10:42:29;;;;;;;19.60;13.60;;;;;;;15.45;64.53;99460.27;117448;1185;22937;-58
2022/01/06 10:45:04;;;;;;;19.90;13.40;;;;;;;15.38;64.63;99462.95;117409;1185;22829;-65
2022/01/06 10:47:42;;;;;;;19.00;12.90;;;;;;;15.40;64.70;99465.31;117382;1183;21981;-57
2022/01/06 10:50:24;;;;;;;21.10;14.30;;;;;;;15.49;64.95;99470.92;117413;1186;23567;-66
2022/01/06 10:53:03;;;;;;;17.80;13.50;;;;;;;15.63;65.00;99476.77;117399;1186;24149;-66
2022/01/06 10:55:36;;;;;;;19.40;13.80;;;;;;;15.65;64.84;99477.23;117275;1189;23454;-66
2022/01/06 10:58:11;;;;;;;20.00;13.60;;;;;;;15.65;64.78;99481.29;117377;1186;23008;-66
2022/01/06 11:01:04;;;;;;;18.30;14.10;;;;;;;15.65;64.59;99481.84;117220;1186;21860;-58
2022/01/06 11:03:33;;;;;;;16.50;13.00;;;;;;;15.61;64.65;99479.19;119060;1185;23443;-59
2022/01/06 11:06:03;;;;;;;24.30;18.00;;;;;;;15.59;64.48;99474.86;117426;1185;23011;-66
2022/01/06 11:08:32;;;;;;;23.60;16.90;;;;;;;15.49;64.28;99471.08;117452;1186;21936;-64
2022/01/06 11:13:44;;;;;;;23.70;17.50;;;;;;;15.30;64.37;99462.77;117369;1186;21851;-66
2022/01/06 11:16:32;;;;;;;19.20;14.60;;;;;;;15.27;64.37;99452.11;117349;1183;23484;-66
2022/01/06 11:19:01;;;;;;;15.90;13.40;;;;;;;15.24;64.26;99446.79;117397;1185;23717;-66
2022/01/06 11:21:39;;;;;;;16.30;13.10;;;;;;;15.23;64.21;99446.48;117362;1186;22609;-57
2022/01/06 11:24:11;;;;;;;17.20;12.80;;;;;;;15.19;64.30;99453.41;117311;1186;21968;-58
2022/01/06 11:26:41;;;;;;;17.50;12.80;;;;;;;15.13;64.45;99455.93;117344;1186;21864;-66
2022/01/06 11:29:11;;;;;;;17.90;13.00;;;;;;;15.11;64.38;99449.52;117356;1185;22969;-57
2022/01/06 11:31:42;;;;;;;16.40;12.60;;;;;;;15.14;64.45;99444.98;117361;1183;22532;-65
2022/01/06 11:34:16;;;;;;;15.30;11.80;;;;;;;15.18;64.42;99453.96;117377;1182;21932;-58
2022/01/06 11:36:54;;;;;;;15.50;11.60;;;;;;;15.16;64.31;99465.70;117375;1183;22932;-66
2022/01/06 11:39:28;;;;;;;21.90;14.00;;;;;;;15.16;64.43;99474.21;117290;1185;22942;-58
2022/01/06 11:41:57;;;;;;;32.50;23.10;;;;;;;15.18;64.54;99474.64;118934;1185;21907;-66